EIKN - Connaught
Distance from station: E 5mi, 14km
Updated: 10/18/2017 12:30pm
NOT Current
Light drizzle, Overcast
Light drizzle, Overcast
 Wind from SSE
Wind: SSE 14 mph , 22 km/h
Temperature: 52°F , 11°C
Dew Point: 52°F , 11°C
Humidity: 100%
Barometer: 29.56 inHg , 1001 hPa
Summary: Light Drizzle
Clouds: Overcast
Visibility: 2 miles , 4 km
Cloud details: Mostly Cloudy 200 ft
Overcast 600 ft
2017/10/18 19:30 EIKN 181930Z 15012KT 4000 -DZ BKN002 OVC006 11/11 Q1001 NOSIG